Airfield :
LOGIN :

Register | Disclaimer

   EN    FR    IT 

 










Legend :    VFR   Marginal VFR   IFR   Intensive IFR   Very Intensive IFR
Visi :
Ceiling :
>= 8 km
>= 3000ft
5 to 8 km
1000 to 3000 ft
1500m to 5 km
500 to 1000 ft
800 to 1500m
200 to 500 ft
< 800m
< 200 ft
Symbols :   Thunderstorms  Fog  Heavy snow  Heavy precipitations  Wind > 20 kt
SIGMETs :     Misc.  Thunderstorms  Icing  Turbulence  Mountain Waves  Volcanic Ashes






- Airport Elevation : 65 ft
- IATA code : PIK


EGPK - Glasgow Prestwick

CURRENT METAR :
  • 180820Z 14009KT 9999 FEW024 OVC045 08/05 Q1024

EXPIRED METARs :
  • 180750Z 13010KT 9999 FEW023 OVC048 08/05 Q1024
  • 180720Z 14008KT 9999 -RA SCT023 OVC048 08/04 Q1024
  • 180650Z 14007KT 9999 -RA FEW027 OVC049 07/04 Q1024
  • 180620Z 13009KT 9999 -RA FEW022 07/04 Q1024
  • 180550Z 13009KT 9999 -RA FEW022 07/03 Q1024

TAF TAF EGPK
Valid from the 18 at 06:00 until the 19 at 06:00 UTC


180455Z 1806/1906 15008KT 9999 SCT020
PROB40
TEMPO 1806/1824 5000 -RADZ BKN012



MET'MAP, your aeronautical weather chart ! - Copyright ORBIFLY December 2007 - Disclaimer

ORBIFLY MET'MAP TEAM :

Programming & Development : Alexandra Zaïnal
Concept & original design : Baudouin d'Aumeries
Assistance for programming : Marc-Olivier Méhu
Technical & hardware support : Manuel Goepfert

Contact : metmap@orbifly.com




SOURCES & CREDITS :

   NOAA